Nearby METAR Reports


KANE - Minneapls/Blaine, Minnesota, USA
Distance from station: ESE 8mi, 13km
Updated: 09/21/2020 11:35pm
Clear
Clear
 Wind from S
Wind: S 5 mph , 7 km/h
Temperature: 64°F , 18°C
Dew Point: 55°F , 13°C
Humidity: 73%
Barometer: 30.08 inHg , 1018.6 hPa
Clouds: Clear
Visibility: 10 miles , 16 km
2020/09/22 04:35 KANE 220435Z AUTO 18004KT 10SM CLR 18/13 A3008 RMK AO2
KMIC - Mnpls/Crystal, Minnesota, USA
Distance from station: S 8mi, 14km
Updated: 09/21/2020 10:53pm
Clear
Clear
 Wind from S
Wind: S 5 mph , 7 km/h
Temperature: 63°F , 17°C
Dew Point: 55°F , 13°C
Humidity: 77%
Barometer: 30.06 inHg , 1017.9 hPa
Clouds: Clear
Visibility: 10 miles , 16 km
2020/09/22 03:53 KMIC 220353Z 17004KT 10SM CLR 17/13 A3006 RMK AO2 SLP178 T01670128
 
KMSP - Minneapolis, Minnesota, USA
Distance from station: SSE 22mi, 35km
Updated: 09/21/2020 10:53pm
Clear
Clear
 Wind from SE
Wind: SE 3 mph , 6 km/h
Temperature: 64°F , 18°C
Dew Point: 57°F , 14°C
Humidity: 78%
Barometer: 30.08 inHg , 1018.6 hPa
Clouds: Clear
Visibility: 10 miles , 16 km
2020/09/22 03:53 KMSP 220353Z 13003KT 10SM CLR 18/14 A3008 RMK AO2 SLP184 T01830139
KSTP - St. Paul, Minnesota, USA
Distance from station: SE 23mi, 38km
Updated: 09/21/2020 10:53pm
Clear
Clear
 Wind from calm
Wind: Calm
Temperature: 64°F , 18°C
Dew Point: 57°F , 14°C
Humidity: 78%
Barometer: 30.09 inHg , 1019 hPa
Clouds: Clear
Visibility: 10 miles , 16 km
2020/09/22 03:53 KSTP 220353Z AUTO 00000KT 10SM CLR 18/14 A3009 RMK AO2 SLP184 T01780139
 
KCFE - Buffalo Muni, Minnesota, USA
Distance from station: W 24mi, 38km
Updated: 09/21/2020 11:35pm
Clear
Clear
 
Temperature: 57°F , 14°C
Dew Point: 54°F , 12°C
Humidity: 88%
Barometer: 30.09 inHg , 1019 hPa
Clouds: Clear
Visibility: 10 miles , 16 km
2020/09/22 04:35 KCFE 220435Z 10SM CLR 14/12 A3009 RMK AO2 T01440117
KFCM - Mnpls/Flying Cld, Minnesota, USA
Distance from station: S 25mi, 40km
Updated: 09/21/2020 10:53pm
Clear
Clear
 Wind from S
Wind: S 3 mph , 6 km/h
Temperature: 64°F , 18°C
Dew Point: 55°F , 13°C
Humidity: 73%
Barometer: 30.08 inHg , 1018.6 hPa
Clouds: Clear
Visibility: 10 miles , 16 km
2020/09/22 03:53 KFCM 220353Z 19003KT 10SM CLR 18/13 A3008 RMK AO2 SLP183 T01830133
 
KCBG - Cambridge Muni, Minnesota, USA
Distance from station: N 27mi, 43km
Updated: 09/21/2020 11:35pm
Clear
Clear
 Wind from calm
Wind: Calm
Temperature: 59°F , 15°C
Dew Point: 50°F , 10°C
Humidity: 72%
Barometer: 30.08 inHg , 1018.6 hPa
Clouds: Clear
Visibility: 10 miles , 16 km
2020/09/22 04:35 KCBG 220435Z AUTO 00000KT 10SM CLR 15/10 A3008 RMK AO2
KPNM - Princeton Muni, Minnesota, USA
Distance from station: NNW 27mi, 44km
Updated: 09/21/2020 11:35pm
Clear
Clear
 Wind from calm
Wind: Calm
Temperature: 55°F , 13°C
Dew Point: 54°F , 12°C
Humidity: 94%
Barometer: 30.08 inHg , 1018.6 hPa
Clouds: Clear
Visibility: 10 miles , 16 km
2020/09/22 04:35 KPNM 220435Z AUTO 00000KT 10SM CLR 13/12 A3008 RMK AO2
 
K21D - Lake Elmo, Minnesota, USA
Distance from station: ESE 28mi, 46km
Updated: 09/21/2020 11:01pm
Clear
Clear
 Wind from calm
Wind: Calm
Temperature: 59°F , 15°C
Dew Point: 55°F , 13°C
Humidity: 88%
Barometer: 30.10 inHg , 1019.3 hPa
Clouds: Clear
Visibility: 10 miles , 16 km
2020/09/22 04:01 K21D 220401Z AUTO 00000KT 10SM CLR 15/13 A3010 RMK AO2
KSGS - South St Paul, Minnesota, USA
Distance from station: SE 28mi, 46km
Updated: 09/21/2020 11:35pm
Clear
Clear
 Wind from calm
Wind: Calm
Temperature: 61°F , 16°C
Dew Point: 55°F , 13°C
Humidity: 83%
Barometer: 30.10 inHg , 1019.3 hPa
Clouds: Clear
Visibility: 10 miles , 16 km
2020/09/22 04:35 KSGS 220435Z AUTO 00000KT 10SM CLR 16/13 A3010 RMK AO2 T01630132
 
KMGG - Maple Lake, Minnesota, USA
Distance from station: W 30mi, 48km
Updated: 09/21/2020 11:35pm

 Wind from calm
Wind: Calm
Temperature: 55°F , 13°C
Dew Point: 55°F , 13°C
Humidity: 100%
Barometer: 30.10 inHg , 1019.3 hPa
Visibility: 7 miles , 11 km
2020/09/22 04:35 KMGG 220435Z AUTO 00000KT 7SM 13/13 A3010 RMK AO2 T01310126
KOEO - Osceola, Wisconsin, USA
Distance from station: ENE 34mi, 55km
Updated: 09/21/2020 11:35pm
Clear
Clear
 Wind from calm
Wind: Calm
Temperature: 61°F , 16°C
Dew Point: 55°F , 13°C
Humidity: 83%
Barometer: 30.12 inHg , 1020 hPa
Clouds: Clear
Visibility: 10 miles , 16 km
2020/09/22 04:35 KOEO 220435Z AUTO 00000KT 10SM CLR 16/13 A3012 RMK AO2 T01620130
 
KLVN - Mnpls/Airlake, Minnesota, USA
Distance from station: S 39mi, 63km
Updated: 09/21/2020 11:35pm
Clear
Clear
 Wind from calm
Wind: Calm
Temperature: 63°F , 17°C
Dew Point: 52°F , 11°C
Humidity: 68%
Barometer: 30.10 inHg , 1019.3 hPa
Clouds: Clear
Visibility: 10 miles , 16 km
2020/09/22 04:35 KLVN 220435Z AUTO 00000KT 10SM CLR 17/11 A3010 RMK AO2
KRNH - New Richmond Mun, Wisconsin, USA
Distance from station: E 41mi, 66km
Updated: 09/21/2020 11:35pm
Clear
Clear
 Wind from S
Wind: S 3 mph , 6 km/h
Temperature: 61°F , 16°C
Dew Point: 54°F , 12°C
Humidity: 77%
Barometer: 30.10 inHg , 1019.3 hPa
Clouds: Clear
Visibility: 10 miles , 16 km
2020/09/22 04:35 KRNH 220435Z AUTO 17003KT 10SM CLR 16/12 A3010 RMK AO2 T01580120
 
KROS - Rush City, Minnesota, USA
Distance from station: NNE 41mi, 66km
Updated: 09/21/2020 11:35pm
Clear
Clear
 Wind from calm
Wind: Calm
Temperature: 54°F , 12°C
Dew Point: 52°F , 11°C
Humidity: 94%
Barometer: 30.08 inHg , 1018.6 hPa
Clouds: Clear
Visibility: 10 miles , 16 km
2020/09/22 04:35 KROS 220435Z AUTO 00000KT 10SM CLR 12/11 A3008 RMK AO2 T01240114
KSTC - St. Cloud, Minnesota, USA
Distance from station: NW 41mi, 67km
Updated: 09/21/2020 10:53pm
Clear
Clear
 Wind from calm
Wind: Calm
Temperature: 55°F , 13°C
Dew Point: 54°F , 12°C
Humidity: 94%
Barometer: 30.07 inHg , 1018.3 hPa
Clouds: Clear
Visibility: 8 miles , 13 km
2020/09/22 03:53 KSTC 220353Z 00000KT 8SM CLR 13/12 A3007 RMK AO2 SLP192 T01330122
 
KGYL - Glencoe, Minnesota, USA
Distance from station: SW 46mi, 74km
Updated: 09/21/2020 11:35pm
Clear
Clear
 Wind from calm
Wind: Calm
Temperature: 59°F , 15°C
Dew Point: 55°F , 13°C
Humidity: 88%
Barometer: 30.09 inHg , 1019 hPa
Clouds: Clear
Visibility: 10 miles , 16 km
2020/09/22 04:35 KGYL 220435Z AUTO 00000KT 10SM CLR 15/13 A3009 RMK AO2 T01510130
KJMR - Mora, Minnesota, USA
Distance from station: N 48mi, 78km
Updated: 09/21/2020 11:35pm
Mist, Clear
Mist, Clear
 Wind from calm
Wind: Calm
Temperature: 52°F , 11°C
Dew Point: 52°F , 11°C
Humidity: 100%
Barometer: 30.10 inHg , 1019.3 hPa
Summary: Mist
Clouds: Clear
Visibility: 5 miles , 8 km
2020/09/22 04:35 KJMR 220435Z AUTO 00000KT 5SM BR CLR 11/11 A3010 RMK AO2